Time;durP1;ratioP1;P1;durP2;ratioP2;P2;SDS_P1;SDS_P2;PMS_P1;PMS_P2;Temp;Humidity;BMP_temperature;BMP_pressure;BME280_temperature;BME280_humidity;BME280_pressure;Samples;Min_cycle;Max_cycle;Signal;HPM_P1;HPM_P2
2022/05/31 00:00:43;;;;;;;6.32;3.20;;;;;;;8.59;60.00;93431.84;5109677;28;20061;-51
2022/05/31 00:03:11;;;;;;;4.43;2.60;;;;;;;8.60;59.61;93429.88;5109821;28;20449;-51
2022/05/31 00:05:38;;;;;;;4.15;2.42;;;;;;;8.81;59.39;93428.75;5091973;28;20050;-47
2022/05/31 00:08:05;;;;;;;4.70;3.17;;;;;;;8.81;60.09;93420.53;5091288;28;20040;-47
2022/05/31 00:10:32;;;;;;;4.50;2.83;;;;;;;8.75;59.73;93423.00;5110042;28;20043;-48
2022/05/31 00:12:59;;;;;;;5.82;3.40;;;;;;;8.75;60.81;93431.22;5109392;28;20047;-56
2022/05/31 00:15:25;;;;;;;6.75;3.50;;;;;;;8.48;61.41;93425.00;5110018;28;20050;-51
2022/05/31 00:17:52;;;;;;;5.15;3.20;;;;;;;8.49;61.12;93421.84;5109371;28;20097;-53
2022/05/31 00:20:19;;;;;;;7.60;3.65;;;;;;;8.56;61.69;93429.16;5091591;28;20050;-47
2022/05/31 00:22:47;;;;;;;6.60;3.70;;;;;;;8.54;62.15;93421.38;5112178;28;20057;-48
2022/05/31 00:25:15;;;;;;;6.35;3.75;;;;;;;8.57;62.18;93422.50;5095247;28;20040;-50
2022/05/31 00:27:41;;;;;;;6.82;4.15;;;;;;;8.15;63.20;93427.41;5092770;28;20424;-46
2022/05/31 00:30:09;;;;;;;6.50;4.10;;;;;;;8.00;63.43;93424.84;5093011;28;20051;-53
2022/05/31 00:32:39;;;;;;;5.45;3.55;;;;;;;8.08;63.42;93427.47;5093194;28;20373;-47
2022/05/31 00:35:12;;;;;;;5.70;3.77;;;;;;;7.97;63.11;93422.94;5092051;28;20529;-47
2022/05/31 00:37:39;;;;;;;6.70;4.20;;;;;;;8.05;62.89;93425.56;5093169;28;20039;-47
2022/05/31 00:40:07;;;;;;;6.28;3.97;;;;;;;8.18;63.38;93423.81;5091978;28;20131;-50
2022/05/31 00:42:56;;;;;;;5.90;3.80;;;;;;;8.25;62.61;93429.22;5093063;28;20507;-46
2022/05/31 00:45:32;;;;;;;5.65;3.97;;;;;;;8.06;63.01;93430.63;5091830;28;20265;-48
2022/05/31 00:47:59;;;;;;;5.97;3.67;;;;;;;8.04;63.82;93429.50;5092486;28;20046;-48
2022/05/31 00:50:34;;;;;;;5.85;4.07;;;;;;;8.09;63.17;93429.03;5092686;28;20043;-52
2022/05/31 00:53:07;;;;;;;6.20;4.20;;;;;;;8.05;63.51;93429.09;5097412;28;20051;-49
2022/05/31 00:55:42;;;;;;;7.75;4.60;;;;;;;8.12;63.50;93431.72;5113096;28;20048;-46
2022/05/31 00:58:19;;;;;;;6.53;4.40;;;;;;;8.11;63.48;93435.63;5112033;28;20585;-47
2022/05/31 01:00:46;;;;;;;7.87;4.73;;;;;;;8.17;62.95;93433.22;5112721;28;20046;-52
2022/05/31 01:03:17;;;;;;;8.25;5.18;;;;;;;8.26;62.66;93438.94;5094804;28;20055;-52
2022/05/31 01:05:45;;;;;;;8.25;5.30;;;;;;;8.26;62.90;93432.72;5112547;28;20119;-49
2022/05/31 01:08:12;;;;;;;6.93;4.40;;;;;;;8.33;62.78;93430.66;5112509;28;20389;-49
2022/05/31 01:10:41;;;;;;;8.52;5.18;;;;;;;8.27;63.29;93426.84;5113012;28;20048;-53
2022/05/31 01:13:10;;;;;;;9.83;4.50;;;;;;;8.33;62.93;93438.06;5111651;28;20890;-53
2022/05/31 01:15:37;;;;;;;9.65;5.78;;;;;;;8.29;62.47;93438.13;5112667;28;20697;-52
2022/05/31 01:18:05;;;;;;;10.48;6.25;;;;;;;8.33;62.97;93436.13;5111965;28;20044;-53
2022/05/31 01:20:32;;;;;;;6.28;4.30;;;;;;;8.05;64.23;93444.69;5112750;28;20040;-51
2022/05/31 01:23:14;;;;;;;7.40;4.65;;;;;;;8.08;64.52;93443.88;5111815;28;20407;-48
2022/05/31 01:26:22;;;;;;;6.87;4.33;;;;;;;7.82;65.39;93443.41;5091641;28;20396;-47
2022/05/31 01:29:00;;;;;;;7.47;4.47;;;;;;;7.80;65.68;93443.06;5068376;28;20048;-47
2022/05/31 01:31:34;;;;;;;5.93;4.05;;;;;;;7.85;64.89;93436.34;5091695;28;20523;-51
2022/05/31 01:34:14;;;;;;;8.43;4.22;;;;;;;7.78;65.09;93438.00;5091334;28;20075;-54
2022/05/31 01:36:48;;;;;;;7.72;4.00;;;;;;;7.78;65.35;93435.25;5092027;28;20044;-56
2022/05/31 01:39:21;;;;;;;7.33;3.93;;;;;;;7.64;65.90;93431.94;5090883;28;20625;-53
2022/05/31 01:41:59;;;;;;;6.38;3.92;;;;;;;7.64;65.89;93431.94;5091218;28;20432;-48
2022/05/31 01:44:30;;;;;;;7.07;4.30;;;;;;;7.56;66.09;93437.47;5090479;28;20044;-47
2022/05/31 01:46:59;;;;;;;7.10;4.45;;;;;;;7.56;65.66;93426.56;5090972;28;20059;-47
2022/05/31 01:49:30;;;;;;;6.25;4.10;;;;;;;7.40;66.26;93434.53;5091508;28;20389;-50
2022/05/31 01:51:58;;;;;;;7.90;4.90;;;;;;;7.22;67.56;93433.97;5091258;28;20047;-49
2022/05/31 01:54:26;;;;;;;8.13;4.88;;;;;;;7.18;67.86;93434.78;5091231;28;20539;-47
2022/05/31 01:56:58;;;;;;;8.63;5.32;;;;;;;7.16;67.78;93433.63;5091229;28;20047;-54
2022/05/31 01:59:29;;;;;;;8.98;4.90;;;;;;;7.19;67.85;93438.28;5091262;28;20571;-47
2022/05/31 02:01:56;;;;;;;9.02;6.00;;;;;;;7.15;68.01;93448.47;5091004;28;20056;-48
2022/05/31 02:04:23;;;;;;;9.23;5.53;;;;;;;7.19;67.35;93439.06;5091077;28;20036;-49
2022/05/31 02:07:10;;;;;;;10.30;5.50;;;;;;;7.29;67.16;93448.31;5090780;28;20121;-52
2022/05/31 02:09:38;;;;;;;9.32;5.82;;;;;;;7.24;67.49;93442.53;5091279;28;20116;-50
2022/05/31 02:12:08;;;;;;;9.07;5.47;;;;;;;7.21;67.06;93444.13;5090709;28;20608;-50
2022/05/31 02:14:35;;;;;;;9.27;5.30;;;;;;;7.26;66.88;93451.84;5091055;28;20453;-53
2022/05/31 02:17:02;;;;;;;10.67;5.50;;;;;;;7.21;67.16;93463.22;5090407;28;20653;-52
2022/05/31 02:19:29;;;;;;;8.85;5.00;;;;;;;7.13;67.49;93470.69;5090982;28;20405;-55
2022/05/31 02:21:59;;;;;;;7.72;4.97;;;;;;;7.06;67.62;93468.03;5090202;28;20059;-54
2022/05/31 02:24:27;;;;;;;6.82;4.65;;;;;;;7.00;67.82;93464.19;5090776;28;20519;-52
2022/05/31 02:26:55;;;;;;;10.98;6.78;;;;;;;6.90;68.11;93462.31;5090579;28;20040;-49
2022/05/31 02:29:25;;;;;;;9.97;6.47;;;;;;;6.88;68.56;93470.13;5090648;28;20054;-52
2022/05/31 02:31:53;;;;;;;8.60;5.18;;;;;;;6.92;68.24;93468.94;5090287;28;20052;-48
2022/05/31 02:34:26;;;;;;;7.50;4.65;;;;;;;6.91;68.32;93461.16;5090480;28;20485;-47
2022/05/31 02:36:54;;;;;;;8.35;4.68;;;;;;;6.95;67.79;93475.53;5072545;28;20046;-47
2022/05/31 02:39:21;;;;;;;7.13;4.25;;;;;;;6.90;67.88;93468.56;5090407;28;20066;-47
2022/05/31 02:41:49;;;;;;;7.73;4.47;;;;;;;6.88;68.33;93462.75;5090086;28;20416;-49
2022/05/31 02:44:17;;;;;;;7.90;4.75;;;;;;;6.59;69.36;93460.22;5089551;28;20626;-51
2022/05/31 02:46:44;;;;;;;7.07;4.80;;;;;;;6.28;70.82;93472.91;5089994;28;20052;-48
2022/05/31 02:49:12;;;;;;;8.35;5.10;;;;;;;6.28;70.74;93469.41;5090434;28;20294;-53
2022/05/31 02:51:45;;;;;;;6.60;4.95;;;;;;;6.39;70.73;93465.44;5090596;28;20048;-52
2022/05/31 02:54:14;;;;;;;7.40;5.00;;;;;;;6.42;70.41;93460.34;5089024;28;20894;-49
2022/05/31 02:56:41;;;;;;;7.30;4.93;;;;;;;6.42;70.38;93450.25;5090248;28;20043;-50
2022/05/31 02:59:08;;;;;;;7.85;4.70;;;;;;;6.47;70.08;93452.53;5089580;28;21019;-51
2022/05/31 03:01:37;;;;;;;7.72;4.90;;;;;;;6.43;70.26;93446.34;5090336;28;20044;-54
2022/05/31 03:04:05;;;;;;;9.18;4.80;;;;;;;6.48;70.23;93454.09;5089702;28;20056;-55
2022/05/31 03:06:33;;;;;;;9.40;4.97;;;;;;;6.38;70.56;93450.28;5090046;28;20407;-50
2022/05/31 03:09:00;;;;;;;7.80;5.30;;;;;;;6.31;70.71;93444.09;5089509;28;20044;-50
2022/05/31 03:11:30;;;;;;;12.77;5.00;;;;;;;6.31;70.62;93444.84;5089864;28;20040;-49
2022/05/31 03:14:32;;;;;;;8.73;5.60;;;;;;;6.26;71.06;93458.13;5089390;28;20070;-49
2022/05/31 03:17:04;;;;;;;7.22;4.88;;;;;;;6.33;70.80;93455.38;5089333;28;20078;-53
2022/05/31 03:19:35;;;;;;;8.50;4.90;;;;;;;6.14;71.30;93467.56;5089987;28;20126;-55
2022/05/31 03:22:07;;;;;;;9.50;5.10;;;;;;;6.10;71.39;93461.34;5088900;28;20123;-48
2022/05/31 03:24:39;;;;;;;8.98;4.63;;;;;;;6.18;71.44;93460.91;5089649;28;20047;-53
2022/05/31 03:27:10;;;;;;;7.38;4.95;;;;;;;6.27;71.36;93468.63;5089143;28;20055;-50
2022/05/31 03:29:40;;;;;;;9.02;5.35;;;;;;;6.35;70.94;93461.97;5089938;28;20054;-48
2022/05/31 03:32:08;;;;;;;9.00;5.50;;;;;;;6.46;70.75;93450.19;5089229;28;20255;-47
2022/05/31 03:34:36;;;;;;;7.78;5.20;;;;;;;6.51;70.43;93455.25;5089654;28;20044;-47
2022/05/31 03:37:04;;;;;;;7.88;5.13;;;;;;;6.51;70.32;93453.28;5089422;28;20040;-50
2022/05/31 03:39:31;;;;;;;8.55;4.90;;;;;;;6.44;70.79;93468.91;5089666;28;20066;-49
2022/05/31 03:41:57;;;;;;;7.63;4.93;;;;;;;6.35;71.02;93467.41;5089499;28;20104;-52
2022/05/31 03:44:24;;;;;;;9.63;5.30;;;;;;;6.42;71.08;93463.88;5089468;28;20048;-54
2022/05/31 03:46:51;;;;;;;8.18;5.68;;;;;;;6.27;71.93;93470.59;5089392;28;20043;-49
2022/05/31 03:49:18;;;;;;;8.05;5.68;;;;;;;6.25;72.25;93478.38;5089577;28;20415;-54
2022/05/31 03:51:45;;;;;;;7.25;5.00;;;;;;;6.48;71.39;93469.66;5088964;28;20036;-49
2022/05/31 03:54:11;;;;;;;8.68;5.95;;;;;;;6.59;70.74;93462.19;5089436;28;20502;-50
2022/05/31 03:56:38;;;;;;;9.07;6.00;;;;;;;6.57;71.11;93464.53;5092860;28;20415;-53
2022/05/31 03:59:05;;;;;;;9.60;5.60;;;;;;;6.75;70.70;93462.44;5093396;28;20458;-50
2022/05/31 04:01:32;;;;;;;9.70;5.45;;;;;;;6.94;69.92;93458.41;5093294;28;20040;-48
2022/05/31 04:03:58;;;;;;;9.98;5.70;;;;;;;7.07;69.18;93457.91;5093111;28;20063;-47
2022/05/31 04:06:25;;;;;;;11.70;5.40;;;;;;;7.18;69.08;93464.00;5093215;28;20044;-48
2022/05/31 04:08:53;;;;;;;10.30;5.90;;;;;;;7.11;68.71;93464.09;5075255;28;20040;-48
2022/05/31 04:11:19;;;;;;;8.82;5.65;;;;;;;6.81;69.66;93454.63;5093237;28;20048;-49
2022/05/31 04:13:46;;;;;;;10.32;6.00;;;;;;;6.84;69.93;93442.13;5092826;28;20051;-56
2022/05/31 04:16:16;;;;;;;11.55;5.93;;;;;;;6.92;70.01;93446.31;5093314;28;20055;-58
2022/05/31 04:18:49;;;;;;;12.85;5.60;;;;;;;7.08;69.13;93446.56;5092868;28;20480;-48
2022/05/31 04:21:17;;;;;;;27.67;14.93;;;;;;;7.24;69.23;93443.28;5074836;28;20055;-50
2022/05/31 04:23:58;;;;;;;13.05;7.10;;;;;;;7.41;68.38;93444.31;5092596;28;20047;-47
2022/05/31 04:26:35;;;;;;;10.43;6.18;;;;;;;7.29;68.74;93456.50;5092844;28;20052;-53
2022/05/31 04:29:02;;;;;;;8.98;5.85;;;;;;;7.35;68.76;93454.88;5074907;28;20040;-47
2022/05/31 04:31:29;;;;;;;9.00;5.97;;;;;;;7.41;68.49;93457.94;5092897;28;20048;-50
2022/05/31 04:33:56;;;;;;;10.23;6.00;;;;;;;7.47;68.89;93458.28;5092715;28;20036;-53
2022/05/31 04:36:22;;;;;;;8.20;5.40;;;;;;;7.76;67.35;93464.19;5092732;28;20481;-49
2022/05/31 04:38:50;;;;;;;8.73;5.53;;;;;;;7.91;67.35;93470.25;5092742;28;20051;-50
2022/05/31 04:41:23;;;;;;;11.02;5.78;;;;;;;7.88;67.61;93471.06;5092631;28;20044;-47
2022/05/31 04:43:55;;;;;;;11.70;6.07;;;;;;;7.77;67.83;93473.94;5091945;28;20075;-50
2022/05/31 04:46:25;;;;;;;11.07;6.07;;;;;;;7.66;67.82;93468.59;5092463;28;20507;-47
2022/05/31 04:48:53;;;;;;;9.70;6.20;;;;;;;7.69;68.60;93480.66;5092306;28;20050;-48
2022/05/31 04:51:20;;;;;;;9.52;6.50;;;;;;;7.33;69.32;93472.84;5092434;28;20048;-53
2022/05/31 04:53:47;;;;;;;12.10;6.25;;;;;;;7.50;69.51;93469.16;5103738;28;20472;-49
2022/05/31 04:56:19;;;;;;;11.40;6.40;;;;;;;7.73;69.16;93454.09;5112884;28;20415;-49
2022/05/31 04:58:48;;;;;;;12.23;6.13;;;;;;;7.83;68.95;93453.19;5112420;28;20069;-50
2022/05/31 05:01:14;;;;;;;9.32;5.90;;;;;;;7.95;68.52;93452.63;5107941;28;20389;-53
2022/05/31 05:03:43;;;;;;;12.63;5.93;;;;;;;7.96;68.79;93456.91;5112008;28;20044;-52
2022/05/31 05:06:12;;;;;;;12.38;6.45;;;;;;;8.03;68.87;93458.78;5112869;28;20047;-50
2022/05/31 05:08:39;;;;;;;8.82;5.80;;;;;;;7.71;69.67;93468.16;5111489;28;20051;-49
2022/05/31 05:11:09;;;;;;;10.00;5.80;;;;;;;7.32;71.58;93468.56;5081373;28;20039;-47
2022/05/31 05:13:37;;;;;;;9.82;5.90;;;;;;;7.23;72.29;93476.47;5113153;28;20423;-51
2022/05/31 05:16:04;;;;;;;10.43;5.75;;;;;;;7.43;71.67;93468.47;5112139;28;20069;-53
2022/05/31 05:18:32;;;;;;;9.88;5.78;;;;;;;7.67;71.06;93472.09;5101487;28;20047;-52
2022/05/31 05:21:00;;;;;;;8.93;6.05;;;;;;;7.88;70.49;93466.38;5110131;28;20042;-50
2022/05/31 05:23:28;;;;;;;10.87;6.37;;;;;;;8.20;69.10;93465.97;5091293;28;20048;-47
2022/05/31 05:25:56;;;;;;;10.48;6.32;;;;;;;8.59;67.94;93469.34;5106640;28;20040;-48
2022/05/31 05:31:22;;;;;;;11.40;6.25;;;;;;;9.92;63.11;93451.41;5111709;28;20112;-53
2022/05/31 05:33:49;;;;;;;10.45;6.30;;;;;;;10.25;60.53;93465.19;5097565;28;20050;-49
2022/05/31 05:36:16;;;;;;;10.27;6.70;;;;;;;9.76;62.45;93463.06;5098128;28;20074;-54
2022/05/31 05:38:43;;;;;;;11.20;6.00;;;;;;;10.06;61.77;93455.81;5111823;28;20609;-54
2022/05/31 05:41:11;;;;;;;9.55;6.30;;;;;;;10.12;61.71;93467.81;5112041;28;20047;-48
2022/05/31 05:43:40;;;;;;;10.05;6.05;;;;;;;12.12;57.25;93450.41;5111647;28;20043;-48
2022/05/31 05:46:11;;;;;;;8.88;5.90;;;;;;;11.38;57.78;93460.22;5093065;28;20048;-51
2022/05/31 05:48:40;;;;;;;8.70;5.63;;;;;;;13.43;51.97;93454.25;5112489;28;20043;-50
2022/05/31 05:51:17;;;;;;;8.02;5.20;;;;;;;14.76;48.77;93446.75;5111339;28;20056;-54
2022/05/31 05:53:44;;;;;;;11.82;5.65;;;;;;;13.83;50.26;93450.94;5111586;28;20066;-50
2022/05/31 05:56:12;;;;;;;13.55;5.57;;;;;;;15.53;47.63;93452.34;5112122;28;20075;-49
2022/05/31 05:58:41;;;;;;;12.68;5.78;;;;;;;17.56;42.54;93445.56;5111999;28;20061;-55
2022/05/31 06:01:31;;;;;;;7.37;4.90;;;;;;;18.07;39.80;93446.59;5110979;28;20843;-54
2022/05/31 06:04:30;;;;;;;9.45;6.07;;;;;;;14.71;47.21;93450.88;5111105;28;22044;-48
2022/05/31 06:07:18;;;;;;;9.40;6.85;;;;;;;14.26;49.17;93452.13;5111459;28;20043;-55
2022/05/31 06:09:57;;;;;;;11.68;6.55;;;;;;;13.75;50.81;93452.41;5111181;28;20078;-50
2022/05/31 06:12:29;;;;;;;8.23;5.82;;;;;;;16.13;46.05;93445.47;5111998;28;20051;-54
2022/05/31 06:15:08;;;;;;;8.00;5.70;;;;;;;15.02;46.82;93446.56;5111608;28;20046;-53
2022/05/31 06:17:44;;;;;;;8.45;5.55;;;;;;;16.46;45.20;93444.00;5106802;28;20050;-51
2022/05/31 06:20:11;;;;;;;7.43;5.07;;;;;;;16.25;45.23;93454.81;5109144;28;20066;-55
2022/05/31 06:22:40;;;;;;;8.60;5.55;;;;;;;15.62;46.24;93454.34;5097949;28;20040;-55
2022/05/31 06:25:09;;;;;;;8.27;5.47;;;;;;;15.51;47.41;93470.63;5077431;28;20824;-51
2022/05/31 06:27:36;;;;;;;10.20;5.87;;;;;;;15.32;47.45;93465.06;5087583;28;20066;-54
2022/05/31 06:30:04;;;;;;;8.10;5.10;;;;;;;15.95;45.72;93449.00;5090427;28;20036;-56
2022/05/31 06:32:31;;;;;;;7.95;4.50;;;;;;;15.95;45.59;93454.53;5076520;28;20048;-50
2022/05/31 06:34:57;;;;;;;8.55;4.53;;;;;;;16.31;44.99;93454.97;5070023;28;20063;-52
2022/05/31 06:37:24;;;;;;;8.18;5.18;;;;;;;17.34;42.53;93457.75;5084602;28;20073;-51
2022/05/31 06:39:51;;;;;;;8.03;5.23;;;;;;;17.25;42.28;93457.78;5089485;28;20408;-51
2022/05/31 06:42:18;;;;;;;7.15;5.00;;;;;;;17.85;41.90;93455.25;5091346;28;20408;-53
2022/05/31 06:44:45;;;;;;;7.60;4.90;;;;;;;21.05;35.72;93449.94;5105973;28;20048;-57
2022/05/31 06:47:12;;;;;;;8.13;4.78;;;;;;;19.74;37.85;93457.44;5091110;28;20044;-54
2022/05/31 06:49:39;;;;;;;8.27;5.00;;;;;;;18.23;40.15;93460.06;5087676;28;20382;-54
2022/05/31 06:57:44;;;;;;;7.68;4.78;;;;;;;18.84;40.12;93459.63;5081879;28;20054;-56
2022/05/31 07:00:14;;;;;;;7.68;4.47;;;;;;;20.73;37.02;93447.13;5088741;28;20044;-54
2022/05/31 07:02:42;;;;;;;6.90;4.20;;;;;;;23.41;33.12;93443.66;5079291;28;20497;-50
2022/05/31 07:05:10;;;;;;;8.30;4.17;;;;;;;23.44;31.79;93441.88;5090126;28;20726;-54
2022/05/31 07:07:38;;;;;;;6.53;3.70;;;;;;;25.18;29.34;93448.75;5090676;28;20040;-53
2022/05/31 07:10:06;;;;;;;6.18;3.70;;;;;;;25.60;28.73;93443.06;5090560;28;20044;-50
2022/05/31 07:12:34;;;;;;;5.97;3.00;;;;;;;27.16;27.01;93440.88;5090829;28;20040;-51
2022/05/31 07:15:02;;;;;;;5.03;3.25;;;;;;;26.66;26.69;93437.50;5088861;28;21070;-54
2022/05/31 07:17:29;;;;;;;7.23;2.90;;;;;;;26.65;26.36;93439.56;5086469;28;20451;-55
2022/05/31 07:19:56;;;;;;;4.15;2.90;;;;;;;25.81;27.81;93438.50;5090024;28;20047;-48
2022/05/31 07:22:38;;;;;;;4.32;2.90;;;;;;;25.80;27.98;93436.22;5089301;28;20040;-50
2022/05/31 07:25:06;;;;;;;6.28;3.00;;;;;;;24.94;29.77;93435.44;5092479;28;20058;-48
2022/05/31 07:27:34;;;;;;;3.70;2.70;;;;;;;27.31;27.27;93427.09;5107241;28;20046;-51
2022/05/31 07:30:02;;;;;;;10.23;3.30;;;;;;;26.95;27.10;93413.28;5109857;28;20054;-52
2022/05/31 07:32:29;;;;;;;6.75;2.80;;;;;;;25.98;28.02;93423.50;5108418;28;20114;-50
2022/05/31 07:35:16;;;;;;;4.53;2.45;;;;;;;25.55;28.54;93413.72;5100410;28;20765;-56
2022/05/31 07:37:43;;;;;;;5.55;2.70;;;;;;;25.22;28.98;93420.44;5109849;28;20048;-51
2022/05/31 07:40:10;;;;;;;4.82;2.65;;;;;;;25.43;28.99;93418.69;5088703;28;20040;-54
2022/05/31 07:42:36;;;;;;;5.47;2.60;;;;;;;24.28;30.89;93422.00;5090194;28;20049;-53
2022/05/31 07:45:04;;;;;;;3.78;2.70;;;;;;;24.92;29.78;93423.97;5107698;28;20044;-52
2022/05/31 07:47:31;;;;;;;4.82;2.80;;;;;;;25.40;28.67;93419.00;5110082;28;20047;-51
2022/05/31 07:49:58;;;;;;;3.90;2.80;;;;;;;24.78;29.35;93428.66;5106936;28;20048;-52
2022/05/31 07:52:25;;;;;;;4.32;2.80;;;;;;;25.46;29.30;93417.66;5099318;28;20049;-51
2022/05/31 07:54:51;;;;;;;5.17;2.77;;;;;;;25.64;28.24;93423.88;5105216;28;20046;-52
2022/05/31 08:00:05;;;;;;;4.70;2.78;;;;;;;24.67;30.21;93420.28;5110149;28;20058;-49
2022/05/31 08:02:31;;;;;;;4.03;2.50;;;;;;;26.99;26.92;93410.91;5110355;28;20395;-54
2022/05/31 08:04:58;;;;;;;3.92;2.60;;;;;;;28.06;25.13;93408.31;5109948;28;20520;-52
2022/05/31 08:07:25;;;;;;;5.27;2.80;;;;;;;26.62;26.88;93414.53;5110284;28;20048;-50
2022/05/31 08:09:51;;;;;;;3.88;2.70;;;;;;;26.90;26.21;93408.50;5109576;28;20035;-49
2022/05/31 08:12:18;;;;;;;3.80;2.38;;;;;;;28.29;24.79;93400.94;5092110;28;20049;-54
2022/05/31 08:14:45;;;;;;;4.85;2.40;;;;;;;26.09;26.99;93396.03;5091510;28;20032;-48
2022/05/31 08:17:12;;;;;;;4.80;2.40;;;;;;;25.30;27.55;93404.53;5107039;28;20052;-53
2022/05/31 08:19:44;;;;;;;4.03;2.43;;;;;;;25.13;27.46;93401.81;5109598;28;20054;-53
2022/05/31 08:22:11;;;;;;;5.30;2.42;;;;;;;25.96;26.55;93401.56;5109875;28;20434;-50
2022/05/31 08:24:39;;;;;;;3.40;2.40;;;;;;;24.62;28.69;93410.63;5109984;28;20056;-54
2022/05/31 08:27:09;;;;;;;3.60;2.30;;;;;;;24.20;28.90;93406.25;5109331;28;20381;-50
2022/05/31 08:29:36;;;;;;;3.58;2.20;;;;;;;24.03;28.07;93401.50;5110074;28;20035;-50
2022/05/31 08:32:04;;;;;;;4.00;2.30;;;;;;;25.48;26.71;93394.66;5091401;28;20044;-50
2022/05/31 08:34:30;;;;;;;4.50;2.20;;;;;;;24.73;27.77;93398.59;5095626;28;20433;-52
2022/05/31 08:36:57;;;;;;;3.50;2.30;;;;;;;24.93;27.17;93397.41;5109287;28;20051;-50
2022/05/31 08:39:24;;;;;;;3.63;2.30;;;;;;;23.42;29.50;93397.59;5109611;28;20052;-48
2022/05/31 08:42:05;;;;;;;3.92;2.40;;;;;;;23.24;30.20;93404.50;5109749;28;20415;-51
2022/05/31 08:44:39;;;;;;;3.87;2.20;;;;;;;23.72;29.29;93397.00;5113763;28;20046;-52
2022/05/31 08:47:31;;;;;;;4.60;2.40;;;;;;;25.39;27.75;93395.75;5113062;28;20394;-52
2022/05/31 08:53:03;;;;;;;3.78;2.30;;;;;;;24.46;27.66;93405.88;5102217;28;20426;-52
2022/05/31 08:58:26;;;;;;;9.40;2.40;;;;;;;25.64;26.25;93390.91;5112622;28;20830;-53
2022/05/31 09:00:57;;;;;;;3.38;2.10;;;;;;;26.94;25.39;93394.09;5113002;28;20400;-53
2022/05/31 09:03:46;;;;;;;3.40;2.25;;;;;;;28.56;23.21;93397.31;5095299;28;20048;-53
2022/05/31 09:06:18;;;;;;;3.22;2.22;;;;;;;29.04;23.57;93404.41;5112450;28;21514;-52
2022/05/31 09:08:58;;;;;;;8.13;2.20;;;;;;;28.90;19.57;93391.66;5112588;28;20059;-55
2022/05/31 09:11:34;;;;;;;4.47;2.20;;;;;;;29.44;21.88;93404.25;5095123;28;20104;-49
2022/05/31 09:14:39;;;;;;;5.70;2.03;;;;;;;27.90;21.51;93407.34;5094582;28;20044;-57
2022/05/31 09:17:29;;;;;;;4.75;2.03;;;;;;;29.09;22.52;93400.69;5095273;28;20054;-50
2022/05/31 09:20:05;;;;;;;4.38;1.92;;;;;;;26.83;24.91;93401.44;5112284;28;20031;-50
2022/05/31 09:22:31;;;;;;;3.45;1.70;;;;;;;30.13;18.21;93374.94;5112892;28;20047;-51
2022/05/31 09:24:58;;;;;;;6.00;1.70;;;;;;;30.17;18.70;93386.66;5112139;28;20058;-53
2022/05/31 09:27:40;;;;;;;3.15;1.90;;;;;;;28.77;21.93;93391.69;5098590;28;20044;-52
2022/05/31 09:30:41;;;;;;;4.22;1.95;;;;;;;29.61;20.87;93395.31;5111935;28;20044;-56
2022/05/31 09:33:50;;;;;;;5.10;2.00;;;;;;;32.06;16.91;93387.44;5062216;28;20732;-54
2022/05/31 09:36:24;;;;;;;5.95;1.90;;;;;;;27.77;21.01;93388.34;5006681;28;20434;-55
2022/05/31 09:39:15;;;;;;;3.47;1.90;;;;;;;26.88;22.38;93385.75;5094628;28;20488;-52
2022/05/31 09:41:48;;;;;;;5.28;1.95;;;;;;;26.13;23.61;93380.91;5109139;28;20040;-54
2022/05/31 09:44:28;;;;;;;4.93;1.90;;;;;;;28.40;22.13;93385.81;5104306;28;20522;-51
2022/05/31 09:47:05;;;;;;;3.65;1.92;;;;;;;29.70;21.21;93381.97;5111732;28;20081;-55
2022/05/31 09:49:39;;;;;;;4.68;2.20;;;;;;;31.00;20.15;93368.47;5110009;28;20048;-52
2022/05/31 09:52:32;;;;;;;3.53;1.80;;;;;;;31.30;17.96;93369.09;5099892;28;20046;-53
2022/05/31 09:58:00;;;;;;;3.75;1.85;;;;;;;27.53;22.12;93380.06;5110573;28;20051;-54
2022/05/31 10:00:27;;;;;;;3.97;2.10;;;;;;;27.27;23.49;93371.06;5099802;28;20040;-59
2022/05/31 10:03:20;;;;;;;3.70;2.08;;;;;;;26.47;23.09;93376.34;5111712;28;20464;-54
2022/05/31 10:06:02;;;;;;;4.43;1.97;;;;;;;26.25;22.87;93376.66;5108030;28;20194;-55
2022/05/31 10:08:32;;;;;;;2.75;1.85;;;;;;;27.57;21.10;93381.28;5112045;28;20044;-51
2022/05/31 10:11:05;;;;;;;5.95;1.77;;;;;;;29.12;20.01;93373.44;5111194;28;20040;-52
2022/05/31 10:13:41;;;;;;;4.10;1.83;;;;;;;29.89;19.19;93361.97;5097810;28;20043;-52
2022/05/31 10:16:15;;;;;;;4.32;1.85;;;;;;;31.46;17.85;93362.09;5080613;28;20054;-57
2022/05/31 10:18:50;;;;;;;2.83;1.80;;;;;;;29.81;18.91;93361.94;5111574;28;20109;-50
2022/05/31 10:21:34;;;;;;;3.63;1.85;;;;;;;29.35;19.64;93389.84;5111229;28;20078;-56
2022/05/31 10:24:26;;;;;;;5.05;1.83;;;;;;;28.42;20.57;93376.81;5085117;28;20040;-50
2022/05/31 10:27:23;;;;;;;2.88;1.60;;;;;;;29.63;19.50;93375.72;5111367;28;20598;-51
2022/05/31 10:30:00;;;;;;;4.53;1.70;;;;;;;29.23;19.59;93372.41;5111073;28;20043;-51
2022/05/31 10:32:58;;;;;;;3.60;1.70;;;;;;;28.32;20.24;93375.75;5111518;28;20051;-51
2022/05/31 10:35:36;;;;;;;4.40;1.63;;;;;;;29.57;19.65;93366.63;5109532;28;20741;-52
2022/05/31 10:38:18;;;;;;;4.80;1.70;;;;;;;27.69;20.25;93362.09;5110720;28;20043;-48
2022/05/31 10:41:07;;;;;;;3.83;1.80;;;;;;;26.87;22.18;93364.53;5111091;28;20480;-57
2022/05/31 10:43:43;;;;;;;3.40;2.00;;;;;;;27.38;22.19;93361.63;5110576;28;20093;-55
2022/05/31 10:46:27;;;;;;;4.27;2.30;;;;;;;28.02;21.86;93371.97;5110363;28;20057;-57
2022/05/31 10:48:58;;;;;;;4.30;2.28;;;;;;;28.39;21.82;93370.19;5096181;28;20054;-52
2022/05/31 10:52:13;;;;;;;5.10;2.10;;;;;;;28.22;22.17;93372.59;5111519;28;20048;-54
2022/05/31 10:55:02;;;;;;;4.07;1.90;;;;;;;27.05;22.99;93377.03;5086102;28;20983;-54
2022/05/31 10:57:58;;;;;;;5.43;2.00;;;;;;;26.66;23.76;93381.22;5110208;28;20729;-54
2022/05/31 11:00:46;;;;;;;4.67;2.10;;;;;;;25.68;24.60;93376.56;5110227;28;20377;-56
2022/05/31 11:03:27;;;;;;;4.45;2.35;;;;;;;26.99;23.13;93376.38;5110195;28;21638;-52
2022/05/31 11:06:03;;;;;;;5.50;2.30;;;;;;;25.67;24.94;93375.03;5109614;28;20118;-53
2022/05/31 11:12:06;;;;;;;4.20;2.13;;;;;;;25.40;25.36;93393.72;5109326;28;20109;-56
2022/05/31 11:14:41;;;;;;;4.57;2.30;;;;;;;25.24;26.12;93398.19;5092799;28;20065;-52
2022/05/31 11:17:39;;;;;;;5.05;2.20;;;;;;;25.45;25.72;93399.25;5110038;28;20672;-50
2022/05/31 11:20:22;;;;;;;3.40;2.20;;;;;;;24.68;25.61;93407.78;5098222;28;20039;-52
2022/05/31 11:23:09;;;;;;;4.00;2.30;;;;;;;25.33;25.63;93405.53;5110058;28;20096;-54
2022/05/31 11:25:42;;;;;;;4.13;2.22;;;;;;;24.92;25.88;93402.25;5110562;28;20416;-53
2022/05/31 11:28:36;;;;;;;4.47;2.20;;;;;;;24.46;26.51;93409.44;5109569;28;21524;-52
2022/05/31 11:31:27;;;;;;;6.78;2.47;;;;;;;23.52;27.06;93406.47;5108277;28;20054;-51
2022/05/31 11:34:07;;;;;;;4.32;2.40;;;;;;;22.10;28.63;93416.78;5109917;28;20044;-51
2022/05/31 11:36:52;;;;;;;4.22;2.15;;;;;;;22.44;29.30;93416.16;5110499;28;20084;-55
2022/05/31 11:39:42;;;;;;;4.60;2.20;;;;;;;21.82;29.28;93413.13;5109531;28;21712;-50
2022/05/31 11:42:24;;;;;;;4.07;2.17;;;;;;;21.51;29.88;93412.72;5108056;28;21738;-54
2022/05/31 11:45:03;;;;;;;4.55;2.30;;;;;;;21.68;30.71;93415.59;5109718;28;20407;-52
2022/05/31 11:47:47;;;;;;;3.42;2.28;;;;;;;21.89;30.34;93441.34;5110356;28;20040;-53
2022/05/31 11:50:34;;;;;;;6.00;2.30;;;;;;;21.82;31.05;93427.09;5103295;28;20055;-51
2022/05/31 11:53:13;;;;;;;4.05;2.10;;;;;;;22.85;29.11;93427.63;5080868;28;20121;-50
2022/05/31 11:56:01;;;;;;;4.03;2.10;;;;;;;23.23;28.19;93416.97;5097692;28;20051;-54
2022/05/31 11:58:58;;;;;;;4.07;2.20;;;;;;;23.37;27.84;93422.81;5109580;28;21514;-51
2022/05/31 12:01:32;;;;;;;7.22;2.22;;;;;;;23.24;28.73;93415.69;5109248;28;20376;-50
2022/05/31 12:04:17;;;;;;;4.25;2.33;;;;;;;22.49;30.16;93423.78;5107668;28;20062;-54
2022/05/31 12:06:55;;;;;;;5.00;2.50;;;;;;;22.44;30.80;93424.53;5083446;28;20054;-51
2022/05/31 12:09:35;;;;;;;4.50;2.17;;;;;;;21.73;30.94;93431.63;5110267;28;20084;-49
2022/05/31 12:12:17;;;;;;;7.10;2.70;;;;;;;21.03;33.95;93440.56;5109002;28;20056;-57
2022/05/31 12:14:49;;;;;;;15.68;7.95;;;;;;;20.22;35.55;93445.06;5096267;28;20054;-53
2022/05/31 12:17:21;;;;;;;6.45;4.20;;;;;;;20.11;35.79;93448.50;5098050;28;20407;-56
2022/05/31 12:19:47;;;;;;;4.57;3.00;;;;;;;19.86;36.05;93447.97;5113688;28;20410;-52
2022/05/31 12:22:22;;;;;;;8.53;2.87;;;;;;;19.53;36.85;93459.41;5099817;28;20045;-52
2022/05/31 12:24:52;;;;;;;6.85;3.00;;;;;;;19.44;37.48;93459.53;5107807;28;20393;-55
2022/05/31 12:27:45;;;;;;;5.50;2.90;;;;;;;19.16;37.41;93463.44;5114083;28;20086;-51